Time;durP1;ratioP1;P1;durP2;ratioP2;P2;SDS_P1;SDS_P2;PMS_P1;PMS_P2;Temp;Humidity;BMP_temperature;BMP_pressure;BME280_temperature;BME280_humidity;BME280_pressure;Samples;Min_cycle;Max_cycle;Signal;HPM_P1;HPM_P2
2021/05/03 00:01:49;;;;;;;1.33;0.30;;;12.40;69.10;;;;;;5014117;28;20029;-69
2021/05/03 00:04:15;;;;;;;1.15;0.30;;;12.40;70.30;;;;;;5013878;28;20517;-70
2021/05/03 00:06:40;;;;;;;0.43;0.20;;;12.30;70.30;;;;;;5014074;28;20030;-69
2021/05/03 00:09:06;;;;;;;0.10;0.10;;;12.30;70.10;;;;;;5013949;28;20034;-69
2021/05/03 00:11:32;;;;;;;4.32;0.30;;;12.30;70.90;;;;;;5013955;28;20129;-71
2021/05/03 00:13:58;;;;;;;3.45;0.30;;;12.30;71.20;;;;;;5014121;28;20044;-71
2021/05/03 00:16:25;;;;;;;0.93;0.30;;;12.20;71.50;;;;;;5012738;28;20072;-71
2021/05/03 00:18:50;;;;;;;0.50;0.25;;;12.20;71.30;;;;;;5013935;28;20029;-72
2021/05/03 00:21:16;;;;;;;0.85;0.30;;;12.20;72.00;;;;;;5013999;28;20026;-71
2021/05/03 00:23:42;;;;;;;0.68;0.35;;;12.10;70.30;;;;;;5013834;28;20140;-71
2021/05/03 00:26:08;;;;;;;0.40;0.20;;;12.10;70.70;;;;;;5013512;28;20036;-71
2021/05/03 00:28:34;;;;;;;1.45;0.57;;;12.20;69.30;;;;;;5013273;28;20087;-71
2021/05/03 00:31:00;;;;;;;0.25;0.25;;;12.10;68.90;;;;;;5013861;28;20109;-71
2021/05/03 00:33:26;;;;;;;1.40;0.30;;;12.10;69.10;;;;;;5013739;28;20080;-71
2021/05/03 00:35:51;;;;;;;0.45;0.22;;;12.00;68.40;;;;;;5013616;28;20479;-71
2021/05/03 00:38:17;;;;;;;2.03;0.25;;;12.00;68.20;;;;;;5013369;28;20080;-71
2021/05/03 00:40:43;;;;;;;0.20;0.20;;;12.00;68.30;;;;;;5013365;28;20037;-71
2021/05/03 00:43:11;;;;;;;2.30;0.20;;;12.00;68.10;;;;;;5013466;28;20482;-71
2021/05/03 00:45:37;;;;;;;0.30;0.28;;;11.90;67.90;;;;;;5013270;28;20493;-71
2021/05/03 00:48:03;;;;;;;1.45;0.20;;;11.80;68.10;;;;;;5013089;28;20026;-71
2021/05/03 00:50:30;;;;;;;1.27;0.20;;;11.80;67.90;;;;;;5013080;28;20491;-70
2021/05/03 00:52:57;;;;;;;0.20;0.20;;;11.80;68.20;;;;;;5013367;28;20026;-71
2021/05/03 00:55:24;;;;;;;0.57;0.20;;;11.80;68.60;;;;;;5013315;28;20060;-71
2021/05/03 00:57:50;;;;;;;1.95;0.30;;;11.80;68.60;;;;;;5012192;28;20029;-71
2021/05/03 01:00:17;;;;;;;0.17;0.15;;;11.80;68.80;;;;;;5010347;28;20030;-71
2021/05/03 01:02:42;;;;;;;0.10;0.10;;;11.80;68.70;;;;;;5010556;28;20487;-71
2021/05/03 01:05:09;;;;;;;1.80;0.30;;;11.70;68.90;;;;;;5012118;28;20036;-71
2021/05/03 01:07:35;;;;;;;0.70;0.20;;;11.80;68.40;;;;;;5013291;28;20033;-71
2021/05/03 01:10:01;;;;;;;0.90;0.20;;;11.80;68.00;;;;;;5013070;28;20022;-71
2021/05/03 01:12:27;;;;;;;0.20;0.20;;;11.80;68.20;;;;;;5012901;28;20106;-71
2021/05/03 01:14:52;;;;;;;0.20;0.20;;;11.80;68.20;;;;;;5012757;28;20084;-71
2021/05/03 01:17:18;;;;;;;0.20;0.20;;;11.80;66.90;;;;;;5012922;28;20378;-71
2021/05/03 01:19:44;;;;;;;0.30;0.30;;;11.80;67.10;;;;;;5012897;28;20026;-71
2021/05/03 01:22:09;;;;;;;0.32;0.20;;;11.80;67.00;;;;;;5012742;28;20026;-71
2021/05/03 01:24:35;;;;;;;1.40;0.22;;;11.80;66.40;;;;;;5013135;28;20034;-71
2021/05/03 01:27:01;;;;;;;1.27;0.20;;;11.90;66.10;;;;;;5012734;28;20152;-71
2021/05/03 01:29:27;;;;;;;0.17;0.10;;;11.90;65.40;;;;;;5012615;28;20065;-71
2021/05/03 01:31:53;;;;;;;0.10;0.10;;;11.80;65.60;;;;;;5012908;28;20022;-70
2021/05/03 01:34:20;;;;;;;1.40;0.10;;;11.80;66.60;;;;;;5013048;28;20088;-71
2021/05/03 01:36:47;;;;;;;3.00;0.25;;;11.90;65.90;;;;;;5012772;28;20045;-71
2021/05/03 01:39:15;;;;;;;1.35;0.25;;;11.80;65.70;;;;;;5012958;28;20026;-71
2021/05/03 01:41:41;;;;;;;0.85;0.30;;;11.90;67.00;;;;;;5012998;28;20041;-71
2021/05/03 01:44:09;;;;;;;0.20;0.20;;;11.90;67.70;;;;;;5012207;28;20045;-71
2021/05/03 01:46:36;;;;;;;0.20;0.20;;;11.80;66.70;;;;;;5012782;28;20026;-71
2021/05/03 01:49:05;;;;;;;0.20;0.20;;;11.90;67.10;;;;;;5012760;28;20108;-71
2021/05/03 01:51:31;;;;;;;1.27;0.40;;;11.80;68.30;;;;;;5012465;28;20042;-71
2021/05/03 01:53:58;;;;;;;0.55;0.30;;;11.90;69.50;;;;;;5012596;28;20041;-71
2021/05/03 01:56:25;;;;;;;1.27;0.40;;;11.80;70.40;;;;;;5013217;28;20105;-70
2021/05/03 01:58:54;;;;;;;0.65;0.20;;;11.80;71.30;;;;;;5015935;28;20066;-71
2021/05/03 02:01:20;;;;;;;4.80;0.45;;;11.80;72.10;;;;;;5016194;28;20022;-71
2021/05/03 02:03:46;;;;;;;1.77;0.50;;;11.80;73.70;;;;;;5016224;28;20040;-71
2021/05/03 02:06:13;;;;;;;1.30;0.50;;;11.80;74.10;;;;;;5016237;28;20084;-71
2021/05/03 02:08:39;;;;;;;2.53;0.40;;;11.80;74.20;;;;;;5016214;28;20026;-71
2021/05/03 02:11:05;;;;;;;0.52;0.30;;;11.80;73.60;;;;;;5016473;28;20478;-71
2021/05/03 02:13:32;;;;;;;1.67;0.50;;;11.80;73.60;;;;;;5016400;28;20417;-71
2021/05/03 02:15:59;;;;;;;2.67;0.50;;;11.70;74.60;;;;;;5015998;28;20482;-71
2021/05/03 02:18:25;;;;;;;0.80;0.35;;;11.70;74.10;;;;;;5015946;28;20033;-71
2021/05/03 02:20:50;;;;;;;1.63;0.40;;;11.70;73.80;;;;;;5015849;28;20040;-71
2021/05/03 02:23:16;;;;;;;1.27;0.30;;;11.60;72.80;;;;;;5015967;28;20033;-70
2021/05/03 02:25:42;;;;;;;0.35;0.30;;;11.60;72.10;;;;;;5015943;28;20352;-71
2021/05/03 02:28:08;;;;;;;0.30;0.30;;;11.60;71.00;;;;;;5016062;28;20030;-71
2021/05/03 02:30:34;;;;;;;0.47;0.35;;;11.60;70.60;;;;;;5016078;28;20030;-71
2021/05/03 02:33:00;;;;;;;1.95;0.40;;;11.60;70.60;;;;;;5015881;28;20053;-71
2021/05/03 02:35:32;;;;;;;0.60;0.47;;;11.50;70.50;;;;;;5016156;28;20026;-71
2021/05/03 02:38:00;;;;;;;1.67;0.40;;;11.50;71.10;;;;;;5015812;28;20502;-71
2021/05/03 02:40:26;;;;;;;1.75;0.30;;;11.50;70.80;;;;;;5015678;28;20022;-70
2021/05/03 02:42:55;;;;;;;0.32;0.32;;;11.50;71.00;;;;;;5015490;28;20049;-71
2021/05/03 02:45:22;;;;;;;0.98;0.30;;;11.50;69.60;;;;;;5015496;28;20113;-71
2021/05/03 02:47:48;;;;;;;0.40;0.30;;;11.60;69.70;;;;;;5015516;28;20493;-71
2021/05/03 02:50:15;;;;;;;1.55;0.60;;;11.60;70.10;;;;;;5015269;28;20046;-71
2021/05/03 02:52:42;;;;;;;0.68;0.47;;;11.50;70.10;;;;;;5014220;28;20053;-71
2021/05/03 02:55:10;;;;;;;2.65;0.40;;;11.50;71.10;;;;;;5014558;28;20034;-71
2021/05/03 02:57:40;;;;;;;0.90;0.50;;;11.60;70.90;;;;;;5014384;28;20037;-71
2021/05/03 03:00:07;;;;;;;1.73;0.60;;;11.60;70.40;;;;;;5014039;28;20048;-70
2021/05/03 03:02:33;;;;;;;1.95;0.43;;;11.50;71.50;;;;;;5013993;28;20069;-70
2021/05/03 03:04:59;;;;;;;0.40;0.40;;;11.50;71.60;;;;;;5014047;28;20084;-70
2021/05/03 03:07:25;;;;;;;0.40;0.40;;;11.50;72.80;;;;;;5014072;28;20026;-71
2021/05/03 03:09:51;;;;;;;2.08;0.50;;;11.60;73.40;;;;;;5014242;28;20566;-71
2021/05/03 03:12:17;;;;;;;0.30;0.30;;;11.50;72.60;;;;;;5014173;28;20022;-71
2021/05/03 03:14:43;;;;;;;0.43;0.40;;;11.50;71.20;;;;;;5014276;28;20037;-70
2021/05/03 03:17:09;;;;;;;2.75;0.40;;;11.60;70.80;;;;;;5014331;28;20026;-71
2021/05/03 03:19:39;;;;;;;0.60;0.40;;;11.60;71.10;;;;;;5013061;28;20378;-71
2021/05/03 03:22:06;;;;;;;0.85;0.50;;;11.60;71.30;;;;;;5014114;28;20030;-71
2021/05/03 03:24:32;;;;;;;0.73;0.40;;;11.60;70.80;;;;;;5012835;28;20090;-71
2021/05/03 03:26:58;;;;;;;1.35;0.40;;;11.60;70.10;;;;;;5013900;28;20124;-71
2021/05/03 03:29:24;;;;;;;0.50;0.40;;;11.50;70.50;;;;;;5014073;28;20480;-71
2021/05/03 03:31:50;;;;;;;2.05;0.30;;;11.60;70.60;;;;;;5014018;28;20049;-71
2021/05/03 03:34:16;;;;;;;0.38;0.38;;;11.50;71.00;;;;;;5014067;28;20394;-71
2021/05/03 03:36:42;;;;;;;0.60;0.30;;;11.60;71.70;;;;;;5013662;28;20026;-71
2021/05/03 03:39:07;;;;;;;0.55;0.40;;;11.60;72.40;;;;;;5013609;28;20137;-71
2021/05/03 03:41:34;;;;;;;1.00;0.55;;;11.50;72.90;;;;;;5014140;28;20021;-71
2021/05/03 03:44:00;;;;;;;0.68;0.50;;;11.50;73.70;;;;;;5013648;28;20164;-71
2021/05/03 03:46:27;;;;;;;0.40;0.40;;;11.50;74.80;;;;;;5013670;28;20022;-70
2021/05/03 03:48:52;;;;;;;0.95;0.47;;;11.50;75.40;;;;;;5013849;28;20108;-71
2021/05/03 03:51:18;;;;;;;0.40;0.40;;;11.50;75.20;;;;;;4989883;28;693356;-71
2021/05/03 03:53:44;;;;;;;6.00;0.40;;;11.50;74.60;;;;;;5014275;28;20109;-71
2021/05/03 03:56:12;;;;;;;0.50;0.40;;;11.50;73.70;;;;;;5014367;28;20084;-71
2021/05/03 03:58:38;;;;;;;0.65;0.50;;;11.50;73.30;;;;;;5014177;28;20390;-71
2021/05/03 04:01:04;;;;;;;1.23;0.50;;;11.40;71.80;;;;;;5013870;28;20028;-71
2021/05/03 04:03:30;;;;;;;0.93;0.40;;;11.40;71.80;;;;;;5014215;28;20045;-71
2021/05/03 04:09:00;;;;;;;0.38;0.20;;;11.30;72.00;;;;;;5007608;28;20501;-71
2021/05/03 04:22:49;;;;;;;0.40;0.40;;;11.10;71.80;;;;;;5013811;28;20060;-71
2021/05/03 04:25:22;;;;;;;1.55;0.40;;;11.10;72.60;;;;;;5013797;28;20034;-71
2021/05/03 04:27:50;;;;;;;0.88;0.40;;;11.00;73.20;;;;;;5013756;28;20026;-71
2021/05/03 04:30:17;;;;;;;0.43;0.40;;;11.00;73.40;;;;;;5013815;28;20378;-71
2021/05/03 04:32:43;;;;;;;0.32;0.30;;;11.00;73.80;;;;;;5013608;28;20022;-71
2021/05/03 04:35:09;;;;;;;0.30;0.30;;;11.00;74.10;;;;;;5013597;28;20368;-70
2021/05/03 04:37:34;;;;;;;0.40;0.30;;;11.00;74.10;;;;;;5013114;28;20037;-70
2021/05/03 04:40:00;;;;;;;0.40;0.30;;;11.00;73.50;;;;;;5013386;28;20343;-71
2021/05/03 04:42:26;;;;;;;1.27;0.40;;;11.00;73.60;;;;;;5013534;28;20072;-72
2021/05/03 04:44:52;;;;;;;0.43;0.40;;;11.00;74.00;;;;;;5013320;28;20463;-71
2021/05/03 04:47:18;;;;;;;0.77;0.40;;;11.00;73.50;;;;;;5013414;28;20025;-71
2021/05/03 04:49:43;;;;;;;0.30;0.30;;;11.00;72.80;;;;;;5013181;28;20042;-71
2021/05/03 04:52:09;;;;;;;0.95;0.32;;;11.00;72.90;;;;;;5013329;28;20486;-71
2021/05/03 04:54:35;;;;;;;0.50;0.38;;;11.00;72.50;;;;;;5013454;28;20029;-71
2021/05/03 04:57:01;;;;;;;1.00;0.30;;;10.90;72.00;;;;;;5013489;28;20076;-71
2021/05/03 04:59:26;;;;;;;1.55;0.30;;;10.90;72.90;;;;;;5013454;28;20394;-71
2021/05/03 05:01:52;;;;;;;0.30;0.30;;;10.90;73.20;;;;;;5013519;28;20489;-71
2021/05/03 05:04:18;;;;;;;0.20;0.20;;;10.90;72.40;;;;;;5013077;28;20383;-71
2021/05/03 05:06:43;;;;;;;0.90;0.30;;;10.90;72.10;;;;;;5013265;28;20026;-71
2021/05/03 05:09:09;;;;;;;0.50;0.30;;;10.90;72.40;;;;;;5013075;28;20034;-71
2021/05/03 05:11:35;;;;;;;0.30;0.30;;;10.90;72.70;;;;;;5013154;28;20114;-71
2021/05/03 05:14:01;;;;;;;1.33;0.50;;;10.90;72.60;;;;;;5013191;28;20088;-71
2021/05/03 05:16:30;;;;;;;0.50;0.47;;;10.90;73.80;;;;;;5011681;28;20072;-70
2021/05/03 05:18:56;;;;;;;1.10;0.30;;;10.90;73.00;;;;;;5012847;28;20513;-70
2021/05/03 05:21:22;;;;;;;0.85;0.40;;;10.90;73.00;;;;;;5013008;28;20101;-70
2021/05/03 05:23:48;;;;;;;2.08;0.30;;;10.90;72.70;;;;;;5012896;28;20030;-70
2021/05/03 05:26:14;;;;;;;5.78;0.63;;;10.90;73.00;;;;;;5013026;28;20372;-71
2021/05/03 05:28:40;;;;;;;0.55;0.40;;;10.90;73.00;;;;;;5012577;28;20045;-69
2021/05/03 05:31:06;;;;;;;0.95;0.45;;;11.00;73.00;;;;;;5013031;28;20029;-71
2021/05/03 05:33:32;;;;;;;0.60;0.55;;;11.00;72.90;;;;;;5016974;28;20053;-71
2021/05/03 05:35:58;;;;;;;2.60;0.70;;;11.00;73.00;;;;;;5016957;28;20415;-71
2021/05/03 05:38:23;;;;;;;2.20;0.70;;;11.00;72.80;;;;;;5016516;28;20490;-71
2021/05/03 05:40:49;;;;;;;0.60;0.57;;;11.00;73.00;;;;;;5016842;28;20037;-71
2021/05/03 05:43:15;;;;;;;1.33;0.60;;;11.00;73.00;;;;;;5016806;28;20034;-71
2021/05/03 05:45:41;;;;;;;1.25;0.60;;;11.10;73.00;;;;;;5016874;28;20531;-71
2021/05/03 05:48:07;;;;;;;0.50;0.50;;;11.10;73.00;;;;;;5016620;28;20113;-72
2021/05/03 05:50:33;;;;;;;0.98;0.50;;;11.20;72.90;;;;;;5016583;28;20042;-70
2021/05/03 05:52:59;;;;;;;4.20;0.70;;;11.20;72.90;;;;;;5016784;28;20033;-71
2021/05/03 05:55:25;;;;;;;1.95;0.68;;;11.20;72.20;;;;;;5016660;28;20414;-70
2021/05/03 05:57:51;;;;;;;0.57;0.55;;;11.20;71.80;;;;;;5015196;28;20048;-70
2021/05/03 06:00:18;;;;;;;2.20;0.63;;;11.30;71.80;;;;;;5016415;28;20089;-71
2021/05/03 06:02:44;;;;;;;0.35;0.35;;;11.30;71.70;;;;;;5016849;28;20022;-71
2021/05/03 06:05:11;;;;;;;0.50;0.50;;;11.30;72.20;;;;;;5016687;28;20048;-71
2021/05/03 06:07:37;;;;;;;1.40;0.50;;;11.40;71.70;;;;;;5016730;28;20072;-70
2021/05/03 06:10:03;;;;;;;0.98;0.52;;;11.40;70.90;;;;;;5016437;28;20034;-71
2021/05/03 06:12:29;;;;;;;1.05;0.35;;;11.40;70.30;;;;;;5016533;28;20026;-72
2021/05/03 06:14:55;;;;;;;3.40;0.45;;;11.50;70.60;;;;;;5016466;28;20022;-71
2021/05/03 06:17:21;;;;;;;0.40;0.40;;;11.50;70.60;;;;;;5016292;28;20022;-71
2021/05/03 06:19:47;;;;;;;1.90;0.40;;;11.50;70.70;;;;;;5016434;28;20656;-70
2021/05/03 06:22:13;;;;;;;0.50;0.40;;;11.60;70.60;;;;;;5016437;28;20088;-72
2021/05/03 06:24:39;;;;;;;0.55;0.45;;;11.60;70.30;;;;;;5016261;28;20034;-71
2021/05/03 06:27:05;;;;;;;1.08;0.57;;;11.60;70.10;;;;;;5016028;28;20018;-70
2021/05/03 06:29:31;;;;;;;0.98;0.70;;;11.70;70.20;;;;;;5016092;28;20470;-71
2021/05/03 06:31:58;;;;;;;1.17;0.90;;;11.70;69.80;;;;;;5015940;28;20022;-71
2021/05/03 06:34:27;;;;;;;1.75;0.98;;;11.80;69.90;;;;;;5016255;28;20109;-70
2021/05/03 06:36:53;;;;;;;5.10;0.60;;;11.80;69.10;;;;;;5030890;28;20022;-71
2021/05/03 06:39:19;;;;;;;1.90;0.52;;;11.80;69.20;;;;;;5015798;28;20030;-71
2021/05/03 06:41:45;;;;;;;3.72;0.98;;;11.90;69.50;;;;;;5015677;28;20105;-71
2021/05/03 06:44:11;;;;;;;0.65;0.43;;;11.90;69.40;;;;;;5015313;28;20041;-71
2021/05/03 06:46:39;;;;;;;2.42;0.70;;;11.90;68.50;;;;;;5015564;28;21127;-71
2021/05/03 06:49:04;;;;;;;1.40;0.60;;;12.00;68.50;;;;;;5015846;28;20088;-71
2021/05/03 06:51:31;;;;;;;2.40;0.50;;;12.00;68.40;;;;;;5015747;28;20046;-71
2021/05/03 06:53:56;;;;;;;1.67;0.70;;;12.10;67.90;;;;;;5016014;28;20475;-70
2021/05/03 06:56:24;;;;;;;6.60;0.88;;;12.10;68.90;;;;;;5015579;28;20022;-71
2021/05/03 06:58:49;;;;;;;8.68;1.10;;;12.20;69.20;;;;;;5015312;28;20033;-70
2021/05/03 07:01:15;;;;;;;2.78;1.05;;;12.20;68.40;;;;;;5015384;28;20030;-71
2021/05/03 07:03:43;;;;;;;0.35;0.35;;;12.30;68.00;;;;;;5014857;28;20466;-67
2021/05/03 07:06:12;;;;;;;1.00;0.52;;;12.40;68.20;;;;;;5015450;28;20079;-67
2021/05/03 07:08:37;;;;;;;0.95;0.60;;;12.40;66.60;;;;;;5015213;28;20065;-67
2021/05/03 07:11:09;;;;;;;3.53;0.57;;;12.40;66.70;;;;;;5015314;28;20026;-67
2021/05/03 07:13:38;;;;;;;21.15;2.30;;;12.50;66.60;;;;;;5015222;28;20549;-67
2021/05/03 07:16:04;;;;;;;37.08;2.58;;;12.50;66.30;;;;;;5015418;28;20026;-67
2021/05/03 07:18:29;;;;;;;15.57;1.73;;;12.60;66.80;;;;;;5015150;28;20029;-66
2021/05/03 07:20:55;;;;;;;12.35;2.13;;;12.60;66.70;;;;;;5014933;28;20382;-65
2021/05/03 07:23:21;;;;;;;5.85;0.90;;;12.70;66.20;;;;;;5014851;28;20378;-68
2021/05/03 07:25:47;;;;;;;0.50;0.45;;;12.70;66.30;;;;;;5014678;28;20026;-68
2021/05/03 07:28:12;;;;;;;1.48;1.17;;;12.80;68.20;;;;;;5014454;28;20025;-68
2021/05/03 07:30:38;;;;;;;2.28;0.60;;;12.90;67.80;;;;;;5015002;28;20459;-68
2021/05/03 07:33:04;;;;;;;1.65;0.77;;;12.80;67.20;;;;;;5014861;28;20076;-68
2021/05/03 07:35:30;;;;;;;11.70;1.50;;;12.90;67.60;;;;;;5014872;28;20026;-68
2021/05/03 07:37:55;;;;;;;8.65;1.40;;;12.90;68.20;;;;;;5014647;28;20036;-68
2021/05/03 07:40:21;;;;;;;6.10;1.05;;;12.90;68.40;;;;;;5014411;28;20061;-68
2021/05/03 07:42:47;;;;;;;4.18;1.48;;;12.90;69.70;;;;;;5014364;28;20030;-68
2021/05/03 07:45:15;;;;;;;3.38;0.77;;;13.00;69.00;;;;;;5013863;28;20045;-68
2021/05/03 07:47:42;;;;;;;1.42;0.65;;;13.00;67.80;;;;;;5014025;28;20022;-68
2021/05/03 07:50:08;;;;;;;2.30;0.47;;;13.00;67.40;;;;;;5014363;28;20137;-68
2021/05/03 07:52:34;;;;;;;1.67;0.68;;;13.00;67.60;;;;;;5014410;28;20101;-68
2021/05/03 07:55:00;;;;;;;14.65;1.20;;;13.10;66.50;;;;;;5013464;28;20125;-68
2021/05/03 07:57:27;;;;;;;0.90;0.50;;;13.10;66.60;;;;;;5013964;28;20029;-68
2021/05/03 07:59:52;;;;;;;0.60;0.60;;;13.20;65.80;;;;;;5014273;28;20049;-67
2021/05/03 08:02:18;;;;;;;1.10;0.70;;;13.20;64.00;;;;;;5014239;28;20057;-68
2021/05/03 08:04:44;;;;;;;11.15;1.00;;;13.30;63.80;;;;;;5014163;28;20034;-67
2021/05/03 08:07:10;;;;;;;8.48;0.80;;;13.30;64.50;;;;;;5014067;28;20030;-67
2021/05/03 08:09:37;;;;;;;0.88;0.45;;;13.40;65.40;;;;;;5013552;28;20033;-68
2021/05/03 08:12:04;;;;;;;1.10;0.70;;;13.50;62.50;;;;;;5013757;28;20441;-67
2021/05/03 08:14:29;;;;;;;1.15;0.52;;;13.50;62.50;;;;;;5014040;28;20471;-68
2021/05/03 08:17:00;;;;;;;0.40;0.40;;;13.60;61.80;;;;;;5014134;28;20021;-68
2021/05/03 08:19:26;;;;;;;1.35;0.43;;;13.60;62.30;;;;;;5014031;28;20433;-67
2021/05/03 08:21:52;;;;;;;0.43;0.43;;;13.70;61.70;;;;;;5014187;28;20367;-68
2021/05/03 08:24:18;;;;;;;2.05;0.82;;;13.80;62.40;;;;;;5014167;28;20041;-68
2021/05/03 08:26:44;;;;;;;9.43;0.88;;;13.80;62.90;;;;;;5013429;28;20541;-67
2021/05/03 08:29:09;;;;;;;15.35;1.90;;;13.90;62.90;;;;;;5012430;28;20125;-67
2021/05/03 08:31:35;;;;;;;0.77;0.50;;;14.00;61.70;;;;;;5012406;28;20041;-68
2021/05/03 08:34:01;;;;;;;3.65;0.60;;;14.10;60.40;;;;;;5012455;28;20080;-68
2021/05/03 08:36:27;;;;;;;5.85;1.02;;;14.10;60.70;;;;;;5012450;28;20026;-68
2021/05/03 08:38:53;;;;;;;10.77;1.00;;;14.20;60.50;;;;;;5012150;28;20383;-68
2021/05/03 08:41:19;;;;;;;6.82;1.38;;;14.30;60.40;;;;;;5012535;28;20018;-68
2021/05/03 08:43:47;;;;;;;2.97;0.50;;;14.30;59.40;;;;;;5011970;28;20021;-68
2021/05/03 08:46:26;;;;;;;0.65;0.40;;;14.30;58.90;;;;;;5012392;28;20541;-68
2021/05/03 08:49:22;;;;;;;1.08;0.55;;;14.40;59.40;;;;;;5013376;28;20093;-68
2021/05/03 08:51:57;;;;;;;1.45;0.50;;;14.50;59.30;;;;;;5013101;28;20380;-68
2021/05/03 08:54:35;;;;;;;0.82;0.43;;;14.50;59.90;;;;;;5013539;28;20490;-68
2021/05/03 08:57:04;;;;;;;2.92;0.52;;;14.60;58.20;;;;;;5013489;28;20064;-68
2021/05/03 08:59:29;;;;;;;1.73;0.68;;;14.60;59.30;;;;;;5013497;28;20103;-68
2021/05/03 09:01:55;;;;;;;1.75;0.43;;;14.70;60.80;;;;;;5013756;28;20478;-68
2021/05/03 09:04:23;;;;;;;0.57;0.40;;;14.80;61.20;;;;;;5011995;28;20505;-67
2021/05/03 09:07:00;;;;;;;1.42;0.50;;;14.80;59.80;;;;;;5013218;28;20421;-68
2021/05/03 09:09:49;;;;;;;2.85;0.60;;;14.90;59.90;;;;;;5013267;28;20026;-68
2021/05/03 09:12:23;;;;;;;2.67;0.40;;;14.90;58.70;;;;;;5012982;28;20061;-68
2021/05/03 09:14:56;;;;;;;2.63;0.60;;;14.90;58.30;;;;;;5013194;28;20030;-68
2021/05/03 09:17:27;;;;;;;0.98;0.40;;;15.00;58.30;;;;;;5013189;28;20053;-68
2021/05/03 09:19:58;;;;;;;0.88;0.50;;;15.00;57.20;;;;;;5013089;28;20029;-68
2021/05/03 09:22:26;;;;;;;4.50;0.60;;;15.10;57.50;;;;;;5012993;28;20080;-68
2021/05/03 09:24:52;;;;;;;2.22;0.40;;;15.10;58.40;;;;;;5013119;28;20044;-69
2021/05/03 09:27:20;;;;;;;1.23;0.52;;;15.20;56.90;;;;;;5013104;28;20112;-69
2021/05/03 09:29:48;;;;;;;1.23;0.40;;;15.20;58.30;;;;;;5013362;28;20033;-69
2021/05/03 09:32:19;;;;;;;1.85;0.50;;;15.30;57.70;;;;;;5011918;28;20107;-69
2021/05/03 09:34:47;;;;;;;0.80;0.32;;;15.40;56.40;;;;;;5011912;28;20037;-69
2021/05/03 09:37:20;;;;;;;0.93;0.30;;;15.40;55.80;;;;;;5013067;28;20104;-68
2021/05/03 09:39:52;;;;;;;0.60;0.50;;;15.50;55.00;;;;;;5012774;28;20069;-69
2021/05/03 09:42:18;;;;;;;0.68;0.43;;;15.50;55.50;;;;;;5012807;28;20037;-68
2021/05/03 09:45:06;;;;;;;0.90;0.40;;;15.60;55.50;;;;;;5012723;28;20084;-69
2021/05/03 09:47:32;;;;;;;2.60;0.85;;;15.60;56.10;;;;;;5013020;28;20034;-68
2021/05/03 09:50:01;;;;;;;5.47;0.50;;;15.60;55.30;;;;;;5012722;28;20456;-68
2021/05/03 09:52:26;;;;;;;3.03;0.50;;;15.70;55.50;;;;;;5012801;28;20371;-68
2021/05/03 09:54:52;;;;;;;3.70;0.40;;;15.70;53.90;;;;;;5012763;28;20056;-68
2021/05/03 09:57:18;;;;;;;4.75;0.50;;;15.80;54.50;;;;;;5012732;28;20076;-68
2021/05/03 09:59:49;;;;;;;8.77;0.70;;;15.80;55.30;;;;;;5013209;28;20053;-68
2021/05/03 10:05:19;;;;;;;1.15;0.35;;;15.90;55.10;;;;;;5012859;28;20128;-68
2021/05/03 10:07:52;;;;;;;3.30;0.40;;;16.00;54.80;;;;;;5012940;28;20030;-68
2021/05/03 10:12:48;;;;;;;0.45;0.43;;;16.20;53.30;;;;;;5012903;28;20025;-68
2021/05/03 10:15:16;;;;;;;0.80;0.50;;;16.30;54.50;;;;;;5013056;28;20030;-70
2021/05/03 10:17:43;;;;;;;1.35;0.45;;;16.40;53.70;;;;;;5014074;28;20073;-69
2021/05/03 10:20:11;;;;;;;1.10;0.50;;;16.40;53.60;;;;;;5016035;28;20453;-68
2021/05/03 10:22:37;;;;;;;3.40;0.43;;;16.50;53.40;;;;;;5015916;28;20109;-68
2021/05/03 10:25:10;;;;;;;3.80;0.50;;;16.60;54.50;;;;;;5016031;28;20121;-68
2021/05/03 10:27:43;;;;;;;0.60;0.40;;;16.70;53.70;;;;;;5016358;28;20061;-68
2021/05/03 10:30:17;;;;;;;0.47;0.47;;;16.70;51.70;;;;;;5016368;28;20083;-68
2021/05/03 10:32:44;;;;;;;1.00;0.70;;;16.80;51.60;;;;;;4995597;28;20022;-69
2021/05/03 10:35:29;;;;;;;0.32;0.30;;;16.90;52.10;;;;;;4994980;28;20448;-69
2021/05/03 10:37:56;;;;;;;0.75;0.60;;;17.00;51.80;;;;;;4995686;28;20030;-69
2021/05/03 10:40:22;;;;;;;2.40;0.50;;;17.00;50.00;;;;;;4996377;28;20030;-68
2021/05/03 10:43:08;;;;;;;2.25;0.50;;;17.00;48.00;;;;;;4994943;28;20493;-68
2021/05/03 10:45:59;;;;;;;4.30;0.50;;;17.00;50.60;;;;;;4996307;28;20396;-68
2021/05/03 10:48:34;;;;;;;1.33;0.60;;;17.00;51.60;;;;;;4995869;28;20090;-67
2021/05/03 10:51:02;;;;;;;2.30;0.55;;;17.10;52.00;;;;;;4996208;28;20137;-69
2021/05/03 10:53:41;;;;;;;3.38;0.65;;;17.20;50.10;;;;;;4996268;28;20079;-70
2021/05/03 10:56:09;;;;;;;6.25;0.80;;;17.20;51.80;;;;;;4996031;28;20034;-68
2021/05/03 10:58:53;;;;;;;9.50;0.60;;;17.30;49.10;;;;;;4995978;28;20102;-69
2021/05/03 11:01:20;;;;;;;6.50;0.60;;;17.40;48.90;;;;;;4996318;28;20101;-68
2021/05/03 11:03:56;;;;;;;3.95;0.80;;;17.40;50.30;;;;;;4996110;28;20376;-69
2021/05/03 11:06:43;;;;;;;0.82;0.50;;;17.50;48.60;;;;;;4996087;28;20443;-68
2021/05/03 11:09:40;;;;;;;0.68;0.38;;;17.60;50.10;;;;;;4995590;28;20034;-69
2021/05/03 11:12:05;;;;;;;3.10;0.63;;;17.70;49.10;;;;;;4995617;28;20446;-69
2021/05/03 11:14:42;;;;;;;1.70;0.52;;;17.80;47.70;;;;;;4995623;28;20084;-69
2021/05/03 11:22:22;;;;;;;2.38;0.65;;;17.90;48.30;;;;;;4995638;28;20386;-69
2021/05/03 11:24:55;;;;;;;1.60;0.60;;;18.00;47.20;;;;;;4995460;28;20031;-69
2021/05/03 11:27:42;;;;;;;2.63;0.57;;;18.00;46.10;;;;;;4995499;28;20046;-68
2021/05/03 11:30:15;;;;;;;1.00;0.40;;;18.00;45.80;;;;;;4994290;28;20030;-69
2021/05/03 11:32:41;;;;;;;1.13;0.35;;;18.10;47.40;;;;;;4995312;28;20050;-69
2021/05/03 11:38:14;;;;;;;0.73;0.55;;;18.20;46.50;;;;;;4995525;28;20030;-69
2021/05/03 11:46:07;;;;;;;1.52;0.60;;;18.50;46.20;;;;;;4995301;28;20026;-70
2021/05/03 11:48:33;;;;;;;1.10;0.43;;;18.50;45.20;;;;;;4994825;28;20108;-71
2021/05/03 11:51:04;;;;;;;3.83;1.27;;;18.60;45.40;;;;;;4995062;28;20058;-70
2021/05/03 11:53:42;;;;;;;0.40;0.40;;;18.60;44.90;;;;;;4994815;28;20038;-69
2021/05/03 11:56:29;;;;;;;0.60;0.60;;;18.60;44.50;;;;;;4994905;28;20030;-70
2021/05/03 11:59:00;;;;;;;0.80;0.55;;;18.80;42.50;;;;;;4994966;28;20022;-72
2021/05/03 12:01:28;;;;;;;1.15;0.60;;;18.70;42.40;;;;;;5009776;28;20033;-70
2021/05/03 12:03:58;;;;;;;1.50;0.68;;;18.60;43.30;;;;;;4994472;28;20026;-71
2021/05/03 12:06:40;;;;;;;0.88;0.55;;;18.50;45.50;;;;;;4994775;28;20102;-71
2021/05/03 12:09:12;;;;;;;0.80;0.50;;;18.50;43.00;;;;;;4994694;28;20019;-71
2021/05/03 12:11:39;;;;;;;1.33;0.60;;;18.30;44.10;;;;;;4994899;28;20045;-70
2021/05/03 12:14:05;;;;;;;2.38;0.52;;;18.30;43.90;;;;;;4994752;28;20022;-70
2021/05/03 12:16:41;;;;;;;0.60;0.45;;;18.30;42.70;;;;;;4994476;28;20022;-70
2021/05/03 12:19:18;;;;;;;3.58;0.52;;;18.30;43.10;;;;;;4994226;28;20022;-71
2021/05/03 12:21:44;;;;;;;3.35;0.70;;;18.20;42.50;;;;;;4994365;28;20101;-70
2021/05/03 12:24:21;;;;;;;3.00;0.50;;;18.20;44.50;;;;;;4994411;28;20022;-71
2021/05/03 12:26:57;;;;;;;2.72;0.50;;;18.20;42.40;;;;;;4994251;28;20081;-72
2021/05/03 12:29:24;;;;;;;1.50;0.60;;;18.20;42.80;;;;;;4994057;28;20046;-72
2021/05/03 12:31:52;;;;;;;1.48;0.50;;;18.20;41.50;;;;;;4993956;28;20085;-71
2021/05/03 12:34:21;;;;;;;1.65;0.75;;;18.20;40.50;;;;;;4994003;28;20419;-72
2021/05/03 12:37:09;;;;;;;1.30;0.52;;;18.10;42.00;;;;;;4994403;28;20034;-72
2021/05/03 12:39:41;;;;;;;1.52;0.57;;;18.10;42.90;;;;;;4993897;28;20435;-71
2021/05/03 12:42:33;;;;;;;4.40;0.70;;;18.20;41.40;;;;;;4994025;28;20077;-72
2021/05/03 12:45:01;;;;;;;;;;;18.20;42.80;;;;;;4994247;28;20038;-71
2021/05/03 12:50:11;;;;;;;0.40;0.40;;;18.30;43.00;;;;;;4993996;28;20049;-71
2021/05/03 12:52:43;;;;;;;1.42;0.60;;;18.30;44.10;;;;;;4993857;28;20431;-71
2021/05/03 12:55:20;;;;;;;2.42;0.50;;;18.40;43.90;;;;;;4993585;28;20030;-71
2021/05/03 12:57:58;;;;;;;0.80;0.50;;;18.40;41.30;;;;;;4993647;28;20117;-71
2021/05/03 13:00:32;;;;;;;1.40;0.80;;;18.40;42.10;;;;;;4993764;28;20023;-71
2021/05/03 13:03:12;;;;;;;2.42;0.60;;;18.30;42.50;;;;;;4993353;28;20037;-72
2021/05/03 13:05:43;;;;;;;0.68;0.50;;;18.30;43.30;;;;;;4993870;28;20030;-71
2021/05/03 13:11:33;;;;;;;0.85;0.57;;;18.50;41.80;;;;;;4983916;28;20066;-71
2021/05/03 13:28:07;;;;;;;3.42;0.60;;;18.70;42.10;;;;;;5011179;28;20041;-71
2021/05/03 13:30:38;;;;;;;3.65;0.50;;;18.70;40.30;;;;;;5011492;28;20033;-71
2021/05/03 13:33:05;;;;;;;0.95;0.60;;;18.70;40.20;;;;;;5012466;28;20026;-71
2021/05/03 13:35:32;;;;;;;0.50;0.50;;;18.70;39.20;;;;;;5007742;28;20033;-71
2021/05/03 13:37:58;;;;;;;1.63;0.57;;;18.70;42.30;;;;;;5012545;28;20026;-70
2021/05/03 13:40:24;;;;;;;0.77;0.50;;;18.70;39.30;;;;;;5012299;28;20486;-71
2021/05/03 13:42:52;;;;;;;1.23;0.60;;;18.80;41.40;;;;;;5012621;28;20096;-71
2021/05/03 13:45:22;;;;;;;3.10;0.60;;;18.70;39.10;;;;;;5012571;28;20042;-71
2021/05/03 13:47:49;;;;;;;2.17;0.47;;;18.60;39.60;;;;;;5012419;28;20022;-72